Time;durP1;ratioP1;P1;durP2;ratioP2;P2;SDS_P1;SDS_P2;PMS_P1;PMS_P2;Temp;Humidity;BMP_temperature;BMP_pressure;BME280_temperature;BME280_humidity;BME280_pressure;Samples;Min_cycle;Max_cycle;Signal;HPM_P1;HPM_P2
2023/10/23 00:02:20;;;;;;;5.33;4.83;;;9.10;1.00;;;;;;5051823;28;20167;-65
2023/10/23 00:04:46;;;;;;;5.20;4.70;;;9.00;1.00;;;;;;5050973;28;20186;-63
2023/10/23 00:07:11;;;;;;;5.07;4.67;;;9.00;1.00;;;;;;5046354;28;20194;-64
2023/10/23 00:09:37;;;;;;;6.03;5.20;;;9.00;1.00;;;;;;5033385;28;20171;-64
2023/10/23 00:12:03;;;;;;;5.77;5.07;;;9.00;1.00;;;;;;5033661;28;20183;-63
2023/10/23 00:14:29;;;;;;;5.30;4.80;;;9.00;1.00;;;;;;5033396;28;20183;-73
2023/10/23 00:16:54;;;;;;;5.07;3.90;;;9.00;1.00;;;;;;5035086;28;20519;-64
2023/10/23 00:19:21;;;;;;;5.40;5.10;;;8.90;1.00;;;;;;5035823;28;20163;-67
2023/10/23 00:21:47;;;;;;;5.97;5.40;;;8.90;1.00;;;;;;5053187;28;20594;-64
2023/10/23 00:24:13;;;;;;;5.43;4.93;;;9.00;1.00;;;;;;5053056;28;20384;-66
2023/10/23 00:26:39;;;;;;;5.33;4.83;;;9.00;1.00;;;;;;5052406;28;20186;-63
2023/10/23 00:29:04;;;;;;;5.27;4.87;;;9.00;1.00;;;;;;5053147;28;20695;-64
2023/10/23 00:31:30;;;;;;;6.60;5.20;;;8.90;1.00;;;;;;5043431;28;20174;-64
2023/10/23 00:33:56;;;;;;;6.20;4.63;;;8.90;1.00;;;;;;5033240;28;20189;-63
2023/10/23 00:36:21;;;;;;;5.37;4.77;;;8.80;1.00;;;;;;5047675;28;20205;-64
2023/10/23 00:38:47;;;;;;;7.97;6.03;;;8.80;1.00;;;;;;5053016;28;20163;-63
2023/10/23 00:41:12;;;;;;;5.77;5.00;;;8.80;1.00;;;;;;5052676;28;20250;-63
2023/10/23 00:43:38;;;;;;;4.70;4.40;;;8.80;1.00;;;;;;5041876;28;20189;-67
2023/10/23 00:46:14;;;;;;;5.80;5.20;;;8.70;1.00;;;;;;5032270;28;20655;-63
2023/10/23 00:48:40;;;;;;;7.70;5.33;;;8.70;1.00;;;;;;5033143;28;20279;-64
2023/10/23 00:51:06;;;;;;;5.70;5.17;;;8.70;1.00;;;;;;5032969;28;20437;-64
2023/10/23 00:53:35;;;;;;;5.20;4.70;;;8.60;1.00;;;;;;5033229;28;20185;-64
2023/10/23 00:56:04;;;;;;;6.77;6.10;;;8.70;1.00;;;;;;5031009;28;20487;-64
2023/10/23 00:58:31;;;;;;;7.27;6.13;;;8.70;1.00;;;;;;5032764;28;20414;-63
2023/10/23 01:00:58;;;;;;;7.57;5.50;;;8.70;1.00;;;;;;5032875;28;20396;-65
2023/10/23 01:03:25;;;;;;;5.20;4.90;;;8.70;1.00;;;;;;5032730;28;20460;-63
2023/10/23 01:05:51;;;;;;;5.97;5.47;;;8.70;1.00;;;;;;5031805;28;20418;-63
2023/10/23 01:08:17;;;;;;;6.20;5.30;;;8.70;1.00;;;;;;5046532;28;20887;-64
2023/10/23 01:10:44;;;;;;;7.50;5.00;;;8.70;1.00;;;;;;5052748;28;20535;-63
2023/10/23 01:13:10;;;;;;;6.90;6.20;;;8.70;1.00;;;;;;5052435;28;20496;-63
2023/10/23 01:15:36;;;;;;;7.13;5.13;;;8.70;1.00;;;;;;5051158;28;20991;-65
2023/10/23 01:18:03;;;;;;;5.40;4.90;;;8.80;1.00;;;;;;5052611;28;20393;-64
2023/10/23 01:20:30;;;;;;;5.80;5.30;;;8.80;1.00;;;;;;5034382;28;20437;-63
2023/10/23 01:22:57;;;;;;;6.17;5.57;;;8.80;1.00;;;;;;5032779;28;20528;-65
2023/10/23 01:25:23;;;;;;;5.50;5.10;;;8.80;1.00;;;;;;5031884;28;20471;-63
2023/10/23 01:27:49;;;;;;;7.43;4.83;;;8.80;1.00;;;;;;5032503;28;20404;-64
2023/10/23 01:30:14;;;;;;;4.50;4.20;;;8.80;1.00;;;;;;5032294;28;20694;-66
2023/10/23 01:32:40;;;;;;;6.00;5.50;;;8.90;1.00;;;;;;5031885;28;20544;-64
2023/10/23 01:35:06;;;;;;;11.27;4.60;;;8.90;1.00;;;;;;5043886;28;20178;-63
2023/10/23 01:37:31;;;;;;;5.40;4.90;;;8.90;1.00;;;;;;5047202;28;20402;-65
2023/10/23 01:39:57;;;;;;;5.83;4.90;;;8.90;1.00;;;;;;5032762;28;20159;-63
2023/10/23 01:42:28;;;;;;;5.77;5.30;;;8.90;1.00;;;;;;5032432;28;20166;-64
2023/10/23 01:44:55;;;;;;;6.93;5.33;;;8.90;1.00;;;;;;5031592;28;20182;-64
2023/10/23 01:47:21;;;;;;;6.33;4.27;;;8.90;1.00;;;;;;5031903;28;20480;-64
2023/10/23 01:49:47;;;;;;;5.93;5.43;;;8.90;1.00;;;;;;5032362;28;20374;-63
2023/10/23 01:52:13;;;;;;;6.63;5.70;;;8.90;1.00;;;;;;5032530;28;20897;-64
2023/10/23 01:54:38;;;;;;;5.70;5.20;;;8.90;1.00;;;;;;5031173;28;20206;-63
2023/10/23 01:57:04;;;;;;;5.13;4.73;;;8.90;1.00;;;;;;5035091;28;20214;-64
2023/10/23 01:59:30;;;;;;;7.40;6.17;;;8.90;1.00;;;;;;5032582;28;20171;-63
2023/10/23 02:01:55;;;;;;;8.30;5.40;;;8.90;1.00;;;;;;5032448;28;20912;-63
2023/10/23 02:04:21;;;;;;;4.50;4.20;;;8.90;1.00;;;;;;5031467;28;20179;-69
2023/10/23 02:06:47;;;;;;;6.83;4.97;;;8.90;1.00;;;;;;5031382;28;20538;-64
2023/10/23 02:09:12;;;;;;;6.30;5.70;;;8.90;1.00;;;;;;5046796;28;20175;-64
2023/10/23 02:11:38;;;;;;;6.20;5.30;;;8.90;1.00;;;;;;5051990;28;20174;-65
2023/10/23 02:14:04;;;;;;;7.80;5.50;;;8.90;1.00;;;;;;5052286;28;20177;-63
2023/10/23 02:16:30;;;;;;;6.17;5.30;;;8.90;1.00;;;;;;5051852;28;20220;-65
2023/10/23 02:18:55;;;;;;;5.40;4.93;;;8.90;1.00;;;;;;5054509;28;20619;-65
2023/10/23 02:21:21;;;;;;;5.30;3.90;;;8.80;1.00;;;;;;5052290;28;20170;-64
2023/10/23 02:23:47;;;;;;;7.93;5.27;;;8.80;1.00;;;;;;5055329;28;20171;-67
2023/10/23 02:26:12;;;;;;;7.73;5.10;;;8.70;1.00;;;;;;5054407;28;20195;-66
2023/10/23 02:28:38;;;;;;;4.93;4.37;;;8.70;1.00;;;;;;5050740;28;20644;-63
2023/10/23 02:31:04;;;;;;;5.57;5.10;;;8.70;1.00;;;;;;5055373;28;20814;-64
2023/10/23 02:33:30;;;;;;;6.53;4.90;;;8.70;1.00;;;;;;5055667;28;20580;-63
2023/10/23 02:35:56;;;;;;;8.13;4.83;;;8.60;1.00;;;;;;5054353;28;20543;-63
2023/10/23 02:38:22;;;;;;;4.90;4.40;;;8.60;1.00;;;;;;5054188;28;20258;-64
2023/10/23 02:40:52;;;;;;;5.73;4.70;;;8.50;1.00;;;;;;5036930;28;20199;-64
2023/10/23 02:43:18;;;;;;;4.73;4.33;;;8.50;1.00;;;;;;5034885;28;20670;-63
2023/10/23 02:45:44;;;;;;;5.20;4.80;;;8.50;1.00;;;;;;5034193;28;20397;-64
2023/10/23 02:48:10;;;;;;;4.77;4.37;;;8.50;1.00;;;;;;5035337;28;20892;-63
2023/10/23 02:50:35;;;;;;;6.30;5.80;;;8.50;1.00;;;;;;5035094;28;20174;-63
2023/10/23 02:53:01;;;;;;;15.40;5.10;;;8.50;1.00;;;;;;5034650;28;20190;-63
2023/10/23 02:55:27;;;;;;;6.00;5.23;;;8.50;1.00;;;;;;5034173;28;20670;-63
2023/10/23 02:57:53;;;;;;;7.80;4.67;;;8.50;1.00;;;;;;5035071;28;20245;-63
2023/10/23 03:00:22;;;;;;;6.30;4.93;;;8.50;1.00;;;;;;5034693;28;20628;-63
2023/10/23 03:02:48;;;;;;;11.30;4.20;;;8.50;1.00;;;;;;5034787;28;20739;-64
2023/10/23 03:05:14;;;;;;;6.20;4.87;;;8.50;1.00;;;;;;5033530;28;20513;-63
2023/10/23 03:07:42;;;;;;;5.73;5.10;;;8.40;1.00;;;;;;5034940;28;20458;-63
2023/10/23 03:10:08;;;;;;;5.63;4.77;;;8.40;1.00;;;;;;5034837;28;20462;-63
2023/10/23 03:12:35;;;;;;;5.73;4.80;;;8.40;1.00;;;;;;5034862;28;20467;-63
2023/10/23 03:15:04;;;;;;;5.27;4.77;;;8.40;1.00;;;;;;5033329;28;20437;-64
2023/10/23 03:17:30;;;;;;;6.60;5.83;;;8.30;1.00;;;;;;5034750;28;20442;-63
2023/10/23 03:19:56;;;;;;;9.43;5.23;;;8.40;1.00;;;;;;5033083;28;20518;-63
2023/10/23 03:22:22;;;;;;;5.10;4.70;;;8.40;1.00;;;;;;5034365;28;20413;-64
2023/10/23 03:24:48;;;;;;;5.70;5.10;;;8.40;1.00;;;;;;5033220;28;20438;-63
2023/10/23 03:27:13;;;;;;;5.10;4.70;;;8.40;1.00;;;;;;5033012;28;20900;-64
2023/10/23 03:29:43;;;;;;;6.60;5.13;;;8.40;1.00;;;;;;5034362;28;20169;-63
2023/10/23 03:32:09;;;;;;;6.40;4.70;;;8.30;1.00;;;;;;5034504;28;20586;-63
2023/10/23 03:34:34;;;;;;;5.53;5.03;;;8.30;1.00;;;;;;5033720;28;20413;-63
2023/10/23 03:37:00;;;;;;;6.30;5.70;;;8.30;1.00;;;;;;5033804;28;20838;-66
2023/10/23 03:39:26;;;;;;;6.60;5.23;;;8.20;1.00;;;;;;5033986;28;20522;-64
2023/10/23 03:41:51;;;;;;;5.67;5.17;;;8.20;1.00;;;;;;5033831;28;20176;-62
2023/10/23 03:44:17;;;;;;;6.77;4.77;;;8.20;1.00;;;;;;5034172;28;20182;-64
2023/10/23 03:46:43;;;;;;;9.07;5.20;;;8.20;1.00;;;;;;5033400;28;20187;-63
2023/10/23 03:49:09;;;;;;;6.10;4.77;;;8.10;1.00;;;;;;5033680;28;20193;-63
2023/10/23 03:51:35;;;;;;;5.80;5.30;;;8.10;1.00;;;;;;5051713;28;20515;-65
2023/10/23 03:54:00;;;;;;;9.43;4.90;;;8.00;1.00;;;;;;5054051;28;20616;-63
2023/10/23 03:56:26;;;;;;;7.73;6.13;;;8.00;1.00;;;;;;5052651;28;20214;-64
2023/10/23 03:58:52;;;;;;;6.10;5.50;;;8.00;1.00;;;;;;5053979;28;20163;-64
2023/10/23 04:01:17;;;;;;;6.70;4.60;;;8.00;1.00;;;;;;5037026;28;20215;-64
2023/10/23 04:03:43;;;;;;;5.50;5.10;;;8.00;1.00;;;;;;5053831;28;20175;-63
2023/10/23 04:06:09;;;;;;;6.53;5.07;;;8.00;1.00;;;;;;5052814;28;20215;-64
2023/10/23 04:08:34;;;;;;;7.37;5.97;;;8.00;1.00;;;;;;5053593;28;20800;-64
2023/10/23 04:11:00;;;;;;;9.23;5.50;;;8.00;1.00;;;;;;5047490;28;20212;-64
2023/10/23 04:13:26;;;;;;;6.53;5.93;;;8.00;1.00;;;;;;5052335;28;20240;-63
2023/10/23 04:15:56;;;;;;;6.87;5.17;;;8.00;1.00;;;;;;5052512;28;20204;-63
2023/10/23 04:18:26;;;;;;;6.80;6.20;;;7.90;1.00;;;;;;5049010;28;20244;-63
2023/10/23 04:21:07;;;;;;;6.90;6.33;;;7.90;1.00;;;;;;5053038;28;20407;-64
2023/10/23 04:23:33;;;;;;;6.47;5.87;;;7.90;1.00;;;;;;5041682;28;20458;-65
2023/10/23 04:25:58;;;;;;;10.30;5.97;;;7.90;1.00;;;;;;5032552;28;20465;-65
2023/10/23 04:28:24;;;;;;;7.47;6.77;;;7.80;1.00;;;;;;5033494;28;20848;-63
2023/10/23 04:30:51;;;;;;;6.93;6.23;;;7.80;1.00;;;;;;5033430;28;20236;-63
2023/10/23 04:33:21;;;;;;;5.80;5.27;;;7.90;1.00;;;;;;5033248;28;20806;-63
2023/10/23 04:35:50;;;;;;;5.97;5.43;;;7.80;1.00;;;;;;5042293;28;20545;-63
2023/10/23 04:38:16;;;;;;;6.70;6.10;;;7.80;1.00;;;;;;5051308;28;20412;-65
2023/10/23 04:40:44;;;;;;;6.03;5.53;;;7.80;1.00;;;;;;5052950;28;20400;-62
2023/10/23 04:43:13;;;;;;;9.30;5.40;;;7.80;1.00;;;;;;5053112;28;20409;-63
2023/10/23 04:45:40;;;;;;;5.77;5.20;;;7.80;1.00;;;;;;5052022;28;20463;-63
2023/10/23 04:48:06;;;;;;;9.40;6.27;;;7.80;1.00;;;;;;5038887;28;20450;-63
2023/10/23 04:50:38;;;;;;;6.03;5.47;;;7.70;1.00;;;;;;5032239;28;20420;-63
2023/10/23 04:53:05;;;;;;;6.23;5.57;;;7.70;1.00;;;;;;5033047;28;20887;-63
2023/10/23 04:55:34;;;;;;;6.03;5.47;;;7.70;1.00;;;;;;5032163;28;20383;-67
2023/10/23 04:58:01;;;;;;;7.70;6.07;;;7.60;1.00;;;;;;5032004;28;20434;-66
2023/10/23 05:00:28;;;;;;;7.30;6.43;;;7.70;1.00;;;;;;5034629;28;20812;-63
2023/10/23 05:02:53;;;;;;;6.80;6.13;;;7.70;1.00;;;;;;5052921;28;20780;-65
2023/10/23 05:05:19;;;;;;;6.30;5.23;;;7.70;1.00;;;;;;5051773;28;20400;-64
2023/10/23 05:07:45;;;;;;;7.10;6.50;;;7.70;1.00;;;;;;5052512;28;20542;-64
2023/10/23 05:10:11;;;;;;;6.17;5.57;;;7.60;1.00;;;;;;5040094;28;20180;-63
2023/10/23 05:12:38;;;;;;;10.60;6.07;;;7.60;1.00;;;;;;5032923;28;20176;-64
2023/10/23 05:15:05;;;;;;;7.27;6.43;;;7.50;1.00;;;;;;5039340;28;20457;-63
2023/10/23 05:17:31;;;;;;;6.47;5.87;;;7.50;1.00;;;;;;5036423;28;20559;-63
2023/10/23 05:19:57;;;;;;;13.07;6.80;;;7.50;1.00;;;;;;5032666;28;20418;-64
2023/10/23 05:22:23;;;;;;;9.60;6.87;;;7.40;1.00;;;;;;5032928;28;20454;-63
2023/10/23 05:24:48;;;;;;;11.43;6.23;;;7.40;1.00;;;;;;5031906;28;20482;-63
2023/10/23 05:27:15;;;;;;;7.43;6.70;;;7.50;1.00;;;;;;5032507;28;20195;-63
2023/10/23 05:29:41;;;;;;;7.83;7.00;;;7.50;1.00;;;;;;5032423;28;20169;-64
2023/10/23 05:32:07;;;;;;;10.43;7.20;;;7.40;1.00;;;;;;5032472;28;20489;-67
2023/10/23 05:34:33;;;;;;;7.70;6.90;;;7.40;1.00;;;;;;5031313;28;20204;-69
2023/10/23 05:36:59;;;;;;;12.10;7.50;;;7.40;1.00;;;;;;5031184;28;20528;-64
2023/10/23 05:39:26;;;;;;;7.37;6.50;;;7.40;1.00;;;;;;5032758;28;21158;-63
2023/10/23 05:41:51;;;;;;;8.00;7.20;;;7.40;1.00;;;;;;5031221;28;20788;-63
2023/10/23 05:44:17;;;;;;;7.67;6.87;;;7.40;1.00;;;;;;5032176;28;20417;-63
2023/10/23 05:46:43;;;;;;;9.53;7.83;;;7.30;1.00;;;;;;5031256;28;20224;-63
2023/10/23 05:49:09;;;;;;;12.30;7.10;;;7.30;1.00;;;;;;5032239;28;20176;-63
2023/10/23 05:51:34;;;;;;;7.13;6.50;;;7.30;1.00;;;;;;5034433;28;20178;-64
2023/10/23 05:54:00;;;;;;;8.50;7.23;;;7.20;1.00;;;;;;5036309;28;20172;-67
2023/10/23 05:56:26;;;;;;;9.73;7.80;;;7.20;1.00;;;;;;5035064;28;20211;-63
2023/10/23 05:58:51;;;;;;;12.73;6.83;;;7.30;1.00;;;;;;5036377;28;20168;-65
2023/10/23 06:01:17;;;;;;;10.90;8.40;;;7.30;1.00;;;;;;5035766;28;20259;-63
2023/10/23 06:03:43;;;;;;;8.90;8.00;;;7.30;1.00;;;;;;5035947;28;20630;-63
2023/10/23 06:06:12;;;;;;;11.17;8.00;;;7.30;1.00;;;;;;5034867;28;20201;-64
2023/10/23 06:08:38;;;;;;;9.30;8.40;;;7.30;1.00;;;;;;5053331;28;20422;-64
2023/10/23 06:11:08;;;;;;;11.10;8.90;;;7.30;1.00;;;;;;5054202;28;20409;-77
2023/10/23 06:13:34;;;;;;;9.37;7.63;;;7.30;1.00;;;;;;5037786;28;20433;-65
2023/10/23 06:16:07;;;;;;;8.17;6.77;;;7.30;1.00;;;;;;5034843;28;20521;-63
2023/10/23 06:18:37;;;;;;;11.10;7.50;;;7.30;1.00;;;;;;5050815;28;20178;-64
2023/10/23 06:21:05;;;;;;;8.83;7.73;;;7.30;1.00;;;;;;5055903;28;20460;-63
2023/10/23 06:23:39;;;;;;;9.10;7.60;;;7.30;1.00;;;;;;5055611;28;20372;-64
2023/10/23 06:26:05;;;;;;;14.00;8.20;;;7.30;1.00;;;;;;5047914;28;20947;-63
2023/10/23 06:28:33;;;;;;;8.07;7.20;;;7.30;1.00;;;;;;5035604;28;20754;-64
2023/10/23 06:31:10;;;;;;;10.80;7.87;;;7.30;1.00;;;;;;5035633;28;20462;-64
2023/10/23 06:33:36;;;;;;;10.47;7.50;;;7.30;1.00;;;;;;5035307;28;20391;-64
2023/10/23 06:36:09;;;;;;;12.50;8.20;;;7.30;1.00;;;;;;5034639;28;20457;-63
2023/10/23 06:38:35;;;;;;;10.70;7.30;;;7.40;1.80;;;;;;5040448;28;20427;-63
2023/10/23 06:41:05;;;;;;;8.93;7.83;;;7.40;3.80;;;;;;5055264;28;20405;-64
2023/10/23 06:43:35;;;;;;;8.70;7.80;;;7.40;6.00;;;;;;5054682;28;20369;-64
2023/10/23 06:46:01;;;;;;;10.00;8.17;;;7.40;7.20;;;;;;5054406;28;20950;-63
2023/10/23 06:48:27;;;;;;;11.43;7.87;;;7.40;8.30;;;;;;5050150;28;20457;-64
2023/10/23 06:50:54;;;;;;;9.50;8.13;;;7.40;10.00;;;;;;5035362;28;20457;-65
2023/10/23 06:53:19;;;;;;;9.43;7.40;;;7.50;12.90;;;;;;5035273;28;20182;-63
2023/10/23 06:55:49;;;;;;;11.20;8.00;;;7.50;13.80;;;;;;5040951;28;20467;-63
2023/10/23 06:58:15;;;;;;;14.50;8.00;;;7.50;18.20;;;;;;5040187;28;20246;-64
2023/10/23 07:00:41;;;;;;;14.47;8.07;;;7.60;21.10;;;;;;5036671;28;20520;-64
2023/10/23 07:03:07;;;;;;;11.87;9.10;;;7.60;22.60;;;;;;5053337;28;20512;-63
2023/10/23 07:05:33;;;;;;;17.83;8.50;;;7.60;24.40;;;;;;5044101;28;20189;-65
2023/10/23 07:07:58;;;;;;;8.97;7.40;;;7.60;30.60;;;;;;5036877;28;20499;-64
2023/10/23 07:10:24;;;;;;;8.10;7.30;;;7.70;30.90;;;;;;5041812;28;20171;-63
2023/10/23 07:12:50;;;;;;;10.73;8.83;;;7.80;30.80;;;;;;5040707;28;20179;-64
2023/10/23 07:15:15;;;;;;;9.20;8.00;;;7.80;30.80;;;;;;5037287;28;20251;-63
2023/10/23 07:17:41;;;;;;;9.30;8.40;;;7.90;42.70;;;;;;5033242;28;20215;-63
2023/10/23 07:20:07;;;;;;;8.47;7.67;;;8.00;61.00;;;;;;5033996;28;20255;-63
2023/10/23 07:22:33;;;;;;;9.23;7.77;;;8.10;72.00;;;;;;5036828;28;20671;-63
2023/10/23 07:24:59;;;;;;;14.40;8.63;;;8.30;79.90;;;;;;5037855;28;20437;-63
2023/10/23 07:27:26;;;;;;;8.17;7.10;;;8.30;81.40;;;;;;5041817;28;20463;-75
2023/10/23 07:29:52;;;;;;;8.17;7.27;;;8.50;91.20;;;;;;5042136;28;20433;-63
2023/10/23 07:32:18;;;;;;;10.83;7.00;;;8.50;92.80;;;;;;5039373;28;20424;-65
2023/10/23 07:34:44;;;;;;;9.00;8.13;;;8.60;94.80;;;;;;5047621;28;20928;-67
2023/10/23 07:37:12;;;;;;;18.17;8.20;;;8.70;96.90;;;;;;5036547;28;20222;-63
2023/10/23 07:39:37;;;;;;;7.73;6.60;;;8.70;96.90;;;;;;5033975;28;20250;-63
2023/10/23 07:42:03;;;;;;;9.23;7.30;;;8.80;96.30;;;;;;5039240;28;20481;-63
2023/10/23 07:44:29;;;;;;;8.57;7.67;;;8.80;94.70;;;;;;5035862;28;20181;-68
2023/10/23 07:46:55;;;;;;;8.07;6.87;;;8.80;92.10;;;;;;5046127;28;21002;-64
2023/10/23 07:49:20;;;;;;;9.03;6.87;;;8.80;84.70;;;;;;5047338;28;20183;-63
2023/10/23 07:51:46;;;;;;;11.00;8.37;;;8.80;80.30;;;;;;5045205;28;20186;-64
2023/10/23 07:54:12;;;;;;;11.60;7.50;;;8.80;80.30;;;;;;5036003;28;20707;-64
2023/10/23 07:56:37;;;;;;;8.20;7.40;;;8.80;80.30;;;;;;5035193;28;20205;-63
2023/10/23 07:59:04;;;;;;;9.80;8.13;;;8.80;80.30;;;;;;5042418;28;20207;-64
2023/10/23 08:01:31;;;;;;;9.23;8.27;;;8.80;80.30;;;;;;5038316;28;20180;-66
2023/10/23 08:03:56;;;;;;;12.87;8.90;;;8.80;80.20;;;;;;5042748;28;20446;-70
2023/10/23 08:06:22;;;;;;;8.77;7.67;;;8.90;80.40;;;;;;5033622;28;20492;-65
2023/10/23 08:08:48;;;;;;;9.47;8.50;;;8.90;80.40;;;;;;5043362;28;20183;-64
2023/10/23 08:11:13;;;;;;;8.63;6.97;;;8.90;80.40;;;;;;5043849;28;20336;-63
2023/10/23 08:13:40;;;;;;;11.23;7.93;;;9.00;85.70;;;;;;5047965;28;20265;-64
2023/10/23 08:16:06;;;;;;;10.80;8.57;;;9.10;90.70;;;;;;5049772;28;20686;-63
2023/10/23 08:18:34;;;;;;;7.53;6.87;;;9.20;91.60;;;;;;5043652;28;20454;-63
2023/10/23 08:20:59;;;;;;;11.07;8.50;;;9.20;93.90;;;;;;5037907;28;20174;-64
2023/10/23 08:23:25;;;;;;;10.40;8.30;;;9.30;92.70;;;;;;5035014;28;20403;-65
2023/10/23 08:25:51;;;;;;;10.90;7.80;;;9.30;90.20;;;;;;5034972;28;20213;-63
2023/10/23 08:28:16;;;;;;;10.07;8.73;;;9.40;90.40;;;;;;5046783;28;20175;-65
2023/10/23 08:30:42;;;;;;;9.60;8.60;;;9.40;82.80;;;;;;5034329;28;20587;-72
2023/10/23 08:33:09;;;;;;;9.47;8.30;;;9.40;80.70;;;;;;5031763;28;20176;-64
2023/10/23 08:35:35;;;;;;;11.67;8.20;;;9.50;81.40;;;;;;5050981;28;20773;-66
2023/10/23 08:38:00;;;;;;;12.63;8.30;;;9.50;80.80;;;;;;5037956;28;20412;-63
2023/10/23 08:40:26;;;;;;;10.83;8.10;;;9.50;80.90;;;;;;5036929;28;20179;-63
2023/10/23 08:42:52;;;;;;;8.67;7.77;;;9.60;80.90;;;;;;5033181;28;20682;-65
2023/10/23 08:45:18;;;;;;;8.00;7.20;;;9.70;81.00;;;;;;5042552;28;20179;-63
2023/10/23 08:47:44;;;;;;;10.20;9.17;;;9.90;81.10;;;;;;5043833;28;20958;-63
2023/10/23 08:50:11;;;;;;;11.30;8.37;;;10.10;80.40;;;;;;5037233;28;20180;-64
2023/10/23 08:52:45;;;;;;;6.93;6.23;;;10.30;80.60;;;;;;5043917;28;20411;-62
2023/10/23 08:55:14;;;;;;;7.50;6.53;;;10.40;65.50;;;;;;5037955;28;20504;-63
2023/10/23 08:57:50;;;;;;;9.03;6.43;;;10.50;32.40;;;;;;5037544;28;20443;-63
2023/10/23 09:00:19;;;;;;;6.40;5.30;;;10.60;13.00;;;;;;5035759;28;20429;-66
2023/10/23 09:02:45;;;;;;;7.17;6.47;;;10.60;1.00;;;;;;5039043;28;20462;-63
2023/10/23 09:05:10;;;;;;;13.07;6.20;;;10.70;1.00;;;;;;5033726;28;20913;-63
2023/10/23 09:07:38;;;;;;;13.30;6.57;;;10.80;1.00;;;;;;5032532;28;20213;-66
2023/10/23 09:10:05;;;;;;;7.37;5.83;;;10.90;1.00;;;;;;5032306;28;20272;-63
2023/10/23 09:12:35;;;;;;;6.13;5.67;;;11.00;1.00;;;;;;5032813;28;20548;-63
2023/10/23 09:15:16;;;;;;;11.97;6.37;;;11.20;1.00;;;;;;5033017;28;20450;-63
2023/10/23 09:17:43;;;;;;;7.47;5.40;;;11.40;1.00;;;;;;5032318;28;20432;-66
2023/10/23 09:20:22;;;;;;;7.33;6.13;;;11.40;1.00;;;;;;5032164;28;20952;-64
2023/10/23 09:22:48;;;;;;;14.13;6.20;;;11.50;1.00;;;;;;5035559;28;20399;-63
2023/10/23 09:25:19;;;;;;;7.47;6.70;;;11.60;1.00;;;;;;5046249;28;20993;-63
2023/10/23 09:27:45;;;;;;;22.10;5.47;;;11.60;1.00;;;;;;5039412;28;20432;-65
2023/10/23 09:30:13;;;;;;;8.97;5.87;;;11.60;1.00;;;;;;5036525;28;20488;-63
2023/10/23 09:32:39;;;;;;;7.80;5.43;;;11.60;1.00;;;;;;5038746;28;20192;-62
2023/10/23 09:35:06;;;;;;;6.30;5.70;;;11.70;1.00;;;;;;5055388;28;20917;-64
2023/10/23 09:37:32;;;;;;;10.33;6.13;;;11.70;1.00;;;;;;5056413;28;20468;-64
2023/10/23 09:40:08;;;;;;;6.80;6.10;;;11.70;1.00;;;;;;5053958;28;20407;-64
2023/10/23 09:42:34;;;;;;;5.63;5.10;;;11.60;1.00;;;;;;5055627;28;20246;-63
2023/10/23 09:45:04;;;;;;;6.10;5.50;;;11.70;1.00;;;;;;5048761;28;20525;-63
2023/10/23 09:47:31;;;;;;;5.77;5.23;;;11.70;1.00;;;;;;5036582;28;20191;-64
2023/10/23 09:49:58;;;;;;;10.43;5.77;;;11.60;1.00;;;;;;5035399;28;20418;-66
2023/10/23 09:52:25;;;;;;;6.33;5.70;;;11.40;1.00;;;;;;5035111;28;20734;-64
2023/10/23 09:54:59;;;;;;;6.60;5.60;;;11.40;1.00;;;;;;5034363;28;20773;-73
2023/10/23 09:57:34;;;;;;;13.13;6.47;;;11.50;1.00;;;;;;5036011;28;20447;-63
2023/10/23 10:00:02;;;;;;;5.93;5.33;;;11.50;1.00;;;;;;5036456;28;20503;-63
2023/10/23 10:02:34;;;;;;;5.93;5.20;;;11.50;1.00;;;;;;5054784;28;20791;-63
2023/10/23 10:05:07;;;;;;;7.93;5.20;;;11.40;1.00;;;;;;5045912;28;20460;-63
2023/10/23 10:07:49;;;;;;;5.47;4.87;;;11.40;1.00;;;;;;5038226;28;20431;-64
2023/10/23 10:10:16;;;;;;;5.77;5.23;;;11.40;1.00;;;;;;5053840;28;20921;-72
2023/10/23 10:12:43;;;;;;;9.67;5.93;;;11.50;1.00;;;;;;5037993;28;20911;-71
2023/10/23 10:15:09;;;;;;;6.67;5.60;;;11.60;1.00;;;;;;5034937;28;20861;-63
2023/10/23 10:17:39;;;;;;;7.67;5.33;;;11.70;1.00;;;;;;5034558;28;20997;-65
2023/10/23 10:20:08;;;;;;;7.13;5.37;;;11.80;1.00;;;;;;5036457;28;20833;-63
2023/10/23 10:22:41;;;;;;;7.10;5.20;;;12.00;1.00;;;;;;5037659;28;20420;-63
2023/10/23 10:25:09;;;;;;;7.93;5.57;;;12.10;1.00;;;;;;5046349;28;20449;-63
2023/10/23 10:27:35;;;;;;;5.70;5.10;;;12.20;1.00;;;;;;5035732;28;20437;-67
2023/10/23 10:30:05;;;;;;;5.40;4.70;;;12.20;1.00;;;;;;5035687;28;20416;-64
2023/10/23 10:32:33;;;;;;;5.13;4.63;;;12.20;1.00;;;;;;5037356;28;20442;-64
2023/10/23 10:35:07;;;;;;;5.30;4.80;;;12.40;1.00;;;;;;5054695;28;20381;-64
2023/10/23 10:37:35;;;;;;;8.40;5.60;;;12.40;1.00;;;;;;5054759;28;20866;-67
2023/10/23 10:40:03;;;;;;;8.13;4.90;;;12.50;1.00;;;;;;5055216;28;20409;-64
2023/10/23 10:42:30;;;;;;;7.47;5.20;;;12.60;1.00;;;;;;5048003;28;20430;-65
2023/10/23 10:45:17;;;;;;;5.77;5.10;;;12.80;1.00;;;;;;5034619;28;20497;-66
2023/10/23 10:47:44;;;;;;;5.73;5.00;;;12.90;1.00;;;;;;5034943;28;20449;-63
2023/10/23 10:50:10;;;;;;;5.63;5.13;;;13.10;1.00;;;;;;5043194;28;20452;-63
2023/10/23 10:52:43;;;;;;;7.20;4.77;;;13.20;1.00;;;;;;5052246;28;20440;-66
2023/10/23 10:55:10;;;;;;;6.03;4.03;;;13.20;99.90;;;;;;5054270;28;20394;-63
2023/10/23 10:57:44;;;;;;;7.97;3.83;;;13.10;99.90;;;;;;5048627;28;20470;-65
2023/10/23 11:00:11;;;;;;;6.83;4.17;;;13.10;99.90;;;;;;5036680;28;20777;-63
2023/10/23 11:02:37;;;;;;;7.77;4.47;;;12.90;99.90;;;;;;5034589;28;20424;-64
2023/10/23 11:05:13;;;;;;;5.77;4.27;;;12.90;99.90;;;;;;5049379;28;20511;-64
2023/10/23 11:07:39;;;;;;;5.93;4.10;;;13.00;99.90;;;;;;5047247;28;20199;-64
2023/10/23 11:10:05;;;;;;;5.87;4.47;;;13.20;99.90;;;;;;5034849;28;20442;-64
2023/10/23 11:12:31;;;;;;;4.33;4.00;;;13.40;99.90;;;;;;5033159;28;20179;-64
2023/10/23 11:14:57;;;;;;;9.50;4.53;;;13.50;99.90;;;;;;5034048;28;20422;-65
2023/10/23 11:17:23;;;;;;;9.53;4.33;;;13.60;99.90;;;;;;5049605;28;20207;-63
2023/10/23 11:19:49;;;;;;;4.80;4.33;;;13.70;99.90;;;;;;5053936;28;20177;-67
2023/10/23 11:22:17;;;;;;;3.30;3.07;;;13.80;99.90;;;;;;5034834;28;20422;-68
2023/10/23 11:24:43;;;;;;;3.10;2.53;;;13.80;99.90;;;;;;5033641;28;20217;-66
2023/10/23 11:27:09;;;;;;;2.97;2.47;;;13.80;99.90;;;;;;5047655;28;20832;-63
2023/10/23 11:29:41;;;;;;;7.60;2.90;;;13.90;99.90;;;;;;5054420;28;20402;-68
2023/10/23 11:32:07;;;;;;;2.73;2.53;;;14.20;99.90;;;;;;5052958;28;20308;-66
2023/10/23 11:34:36;;;;;;;2.40;2.10;;;14.40;99.90;;;;;;5031930;28;20445;-66
2023/10/23 11:37:03;;;;;;;2.47;2.03;;;14.60;99.90;;;;;;5050873;28;20461;-64
2023/10/23 11:39:29;;;;;;;3.57;2.33;;;14.70;99.90;;;;;;5048131;28;20785;-63
2023/10/23 11:41:59;;;;;;;3.20;2.20;;;14.90;99.90;;;;;;5050653;28;20428;-64
2023/10/23 11:44:29;;;;;;;3.43;2.40;;;15.20;99.90;;;;;;5046486;28;20430;-65
2023/10/23 11:46:57;;;;;;;7.33;2.33;;;15.10;71.30;;;;;;5036061;28;20450;-68
2023/10/23 11:49:23;;;;;;;8.70;1.93;;;15.10;57.30;;;;;;5035779;28;20433;-68
2023/10/23 11:51:50;;;;;;;2.47;1.50;;;15.10;44.90;;;;;;5045408;28;20938;-64
2023/10/23 11:54:19;;;;;;;8.77;1.80;;;15.00;17.60;;;;;;5034068;28;20468;-65
2023/10/23 11:56:45;;;;;;;2.50;1.60;;;14.90;4.70;;;;;;5033546;28;20469;-64
2023/10/23 11:59:16;;;;;;;1.40;1.30;;;14.90;1.60;;;;;;5035450;28;20426;-64
2023/10/23 12:01:42;;;;;;;5.87;1.80;;;14.80;1.00;;;;;;5033710;28;20786;-63
2023/10/23 12:04:09;;;;;;;6.80;2.03;;;14.70;1.00;;;;;;5033987;28;20886;-67
2023/10/23 12:06:35;;;;;;;1.93;1.70;;;14.70;1.00;;;;;;5033748;28;20532;-63
2023/10/23 12:09:02;;;;;;;2.20;2.00;;;14.60;1.00;;;;;;5049085;28;20417;-64
2023/10/23 12:11:28;;;;;;;6.03;1.67;;;14.60;1.00;;;;;;5052114;28;20409;-64
2023/10/23 12:13:54;;;;;;;2.00;1.50;;;14.50;1.00;;;;;;5033693;28;20456;-64
2023/10/23 12:16:20;;;;;;;2.20;1.23;;;14.40;1.00;;;;;;5034761;28;20853;-65
2023/10/23 12:18:46;;;;;;;1.70;1.60;;;14.30;1.00;;;;;;5033612;28;20406;-64
2023/10/23 12:21:12;;;;;;;5.07;1.30;;;14.30;1.00;;;;;;5049580;28;20169;-63
2023/10/23 12:23:38;;;;;;;2.80;1.60;;;14.20;1.00;;;;;;5050722;28;20225;-63
2023/10/23 12:26:04;;;;;;;6.00;2.00;;;14.20;1.00;;;;;;5048522;28;20476;-69
2023/10/23 12:28:29;;;;;;;4.80;1.40;;;14.30;1.00;;;;;;5036538;28;20192;-63
2023/10/23 12:30:55;;;;;;;6.63;1.60;;;14.20;1.00;;;;;;5036215;28;20425;-66
2023/10/23 12:33:21;;;;;;;5.23;1.87;;;14.10;1.00;;;;;;5033640;28;20233;-64
2023/10/23 12:35:47;;;;;;;1.40;1.30;;;14.10;1.00;;;;;;5033335;28;20624;-64
2023/10/23 12:38:12;;;;;;;2.30;1.50;;;14.10;1.00;;;;;;5033295;28;20571;-65
2023/10/23 12:40:39;;;;;;;3.20;1.70;;;14.10;1.00;;;;;;5033119;28;20171;-64
2023/10/23 12:43:05;;;;;;;1.60;1.50;;;14.10;1.00;;;;;;5032799;28;20187;-64
2023/10/23 12:45:31;;;;;;;2.03;1.73;;;14.10;1.00;;;;;;5032133;28;20402;-64
2023/10/23 12:47:56;;;;;;;2.40;1.70;;;14.10;1.00;;;;;;5033001;28;20430;-64
2023/10/23 12:50:22;;;;;;;5.77;2.60;;;14.10;1.00;;;;;;5033244;28;20464;-65
2023/10/23 12:52:48;;;;;;;5.50;1.80;;;14.10;1.00;;;;;;5032777;28;20183;-63
2023/10/23 12:55:13;;;;;;;3.40;2.00;;;14.10;1.00;;;;;;5031668;28;20803;-65
2023/10/23 12:57:41;;;;;;;8.40;1.63;;;14.10;1.00;;;;;;5042654;28;20268;-64
2023/10/23 13:00:08;;;;;;;5.93;1.60;;;14.10;1.00;;;;;;5032366;28;20171;-65